Time;durP1;ratioP1;P1;durP2;ratioP2;P2;SDS_P1;SDS_P2;PMS_P1;PMS_P2;Temp;Humidity;BMP_temperature;BMP_pressure;BME280_temperature;BME280_humidity;BME280_pressure;Samples;Min_cycle;Max_cycle;Signal;HPM_P1;HPM_P2
2024/02/10 00:01:45;;;;;;;5.90;3.10;;;;;;;-8.28;100.00;98858.88;4970938;28;20321;-67
2024/02/10 00:04:13;;;;;;;4.73;2.80;;;;;;;-8.19;100.00;98863.59;4962971;28;20933;-67
2024/02/10 00:06:45;;;;;;;7.33;3.10;;;;;;;-8.12;100.00;98864.19;4977698;28;20323;-67
2024/02/10 00:09:14;;;;;;;5.23;3.17;;;;;;;-7.96;100.00;98854.94;4945622;28;20391;-66
2024/02/10 00:11:41;;;;;;;6.93;3.07;;;;;;;-7.97;100.00;98859.28;4993884;28;20303;-66
2024/02/10 00:14:08;;;;;;;5.53;3.37;;;;;;;-7.89;100.00;98864.94;4963384;28;20291;-67
2024/02/10 00:16:36;;;;;;;6.13;3.60;;;;;;;-7.84;100.00;98870.72;4980128;28;20292;-67
2024/02/10 00:19:06;;;;;;;7.93;4.13;;;;;;;-7.93;100.00;98867.72;4947594;28;20383;-66
2024/02/10 00:21:34;;;;;;;5.77;3.40;;;;;;;-7.86;100.00;98869.97;4973850;28;20300;-67
2024/02/10 00:24:04;;;;;;;7.50;3.87;;;;;;;-7.81;100.00;98870.59;5017686;28;20604;-67
2024/02/10 00:26:33;;;;;;;5.33;3.17;;;;;;;-7.74;100.00;98866.88;5017419;28;20338;-67
2024/02/10 00:28:58;;;;;;;4.37;2.50;;;;;;;-7.83;100.00;98872.41;5001239;28;20295;-67
2024/02/10 00:31:25;;;;;;;6.40;3.33;;;;;;;-7.83;100.00;98867.25;5001275;28;20288;-67
2024/02/10 00:33:51;;;;;;;5.80;3.43;;;;;;;-7.85;100.00;98863.06;5004278;28;20044;-67
2024/02/10 00:36:22;;;;;;;5.37;3.53;;;;;;;-7.73;100.00;98878.00;5004197;28;20284;-66
2024/02/10 00:38:49;;;;;;;;;;;;;;;-7.69;100.00;98872.69;5003706;28;20295;-66
2024/02/10 00:41:19;;;;;;;6.50;3.30;;;;;;;-7.76;100.00;98878.13;5019289;28;19936;-67
2024/02/10 00:43:49;;;;;;;6.83;3.70;;;;;;;-7.83;100.00;98893.03;5019605;28;20299;-66
2024/02/10 00:46:19;;;;;;;5.30;3.17;;;;;;;-7.84;100.00;98895.66;5002903;28;20280;-67
2024/02/10 00:48:48;;;;;;;5.60;3.60;;;;;;;-7.91;100.00;98889.94;4986671;28;20357;-67
2024/02/10 00:51:16;;;;;;;6.40;3.42;;;;;;;-7.83;100.00;98889.59;5020068;28;20063;-67
2024/02/10 00:53:43;;;;;;;5.27;2.90;;;;;;;-7.86;100.00;98897.47;4978415;28;20080;-66
2024/02/10 00:56:13;;;;;;;6.83;3.33;;;;;;;-7.76;100.00;98904.75;4980565;28;20285;-67
2024/02/10 00:58:44;;;;;;;5.80;3.30;;;;;;;-7.79;100.00;98911.75;4948207;28;20404;-67
2024/02/10 01:01:22;;;;;;;6.27;3.37;;;;;;;-7.79;100.00;98907.44;4965113;28;20403;-66
2024/02/10 01:03:49;;;;;;;5.50;3.10;;;;;;;-7.75;100.00;98910.75;4980061;28;20350;-66
2024/02/10 01:06:20;;;;;;;6.17;3.57;;;;;;;-7.75;100.00;98909.00;4963906;28;20289;-66
2024/02/10 01:08:52;;;;;;;7.22;3.47;;;;;;;-7.69;100.00;98916.50;4980294;28;20339;-66
2024/02/10 01:11:23;;;;;;;6.30;3.43;;;;;;;-7.74;100.00;98927.88;4996452;28;20038;-67
2024/02/10 01:13:50;;;;;;;4.80;3.23;;;;;;;-7.81;100.00;98931.63;4997109;28;20301;-68
2024/02/10 01:16:17;;;;;;;7.63;4.20;;;;;;;-7.80;100.00;98938.44;4949101;28;20311;-67
2024/02/10 01:18:45;;;;;;;8.40;4.00;;;;;;;-7.89;100.00;98941.41;4963707;28;20774;-67
2024/02/10 01:21:19;;;;;;;6.73;3.73;;;;;;;-8.02;100.00;98945.34;4965323;28;20315;-67
2024/02/10 01:23:49;;;;;;;10.53;4.47;;;;;;;-8.09;100.00;98949.06;4952102;28;20289;-67
2024/02/10 01:26:17;;;;;;;8.40;4.13;;;;;;;-8.17;100.00;98944.22;5002995;28;20086;-67
2024/02/10 01:28:44;;;;;;;7.50;3.93;;;;;;;-8.24;100.00;98952.28;5003078;28;20045;-67
2024/02/10 01:31:13;;;;;;;8.27;3.43;;;;;;;-8.26;100.00;98949.78;5002768;28;20378;-67
2024/02/10 01:33:41;;;;;;;8.63;4.03;;;;;;;-8.37;100.00;98948.50;5018961;28;20896;-68
2024/02/10 01:36:09;;;;;;;10.80;4.70;;;;;;;-8.37;100.00;98956.22;5002823;28;20303;-67
2024/02/10 01:38:42;;;;;;;7.10;3.50;;;;;;;-8.45;100.00;98951.38;5002500;28;20750;-67
2024/02/10 01:41:12;;;;;;;10.27;4.40;;;;;;;-8.43;100.00;98954.72;4987280;28;20843;-67
2024/02/10 01:43:39;;;;;;;6.00;3.57;;;;;;;-8.59;100.00;98951.03;4985641;28;20345;-67
2024/02/10 01:46:10;;;;;;;9.83;3.83;;;;;;;-8.56;100.00;98962.97;5018262;28;20299;-67
2024/02/10 01:48:37;;;;;;;9.77;3.70;;;;;;;-8.63;100.00;98970.06;5018448;28;20638;-66
2024/02/10 01:51:04;;;;;;;8.60;4.00;;;;;;;-8.64;100.00;98963.22;4985577;28;20399;-67
2024/02/10 01:53:32;;;;;;;8.07;4.17;;;;;;;-8.62;100.00;98971.75;5017772;28;20299;-66
2024/02/10 01:56:04;;;;;;;6.23;3.67;;;;;;;-8.61;100.00;98968.28;5034607;28;20291;-67
2024/02/10 01:58:32;;;;;;;9.27;4.07;;;;;;;-8.51;100.00;98973.91;5034323;28;20311;-67
2024/02/10 02:00:58;;;;;;;8.20;3.80;;;;;;;-8.57;100.00;98974.16;4985327;28;20742;-67
2024/02/10 02:03:26;;;;;;;7.40;3.40;;;;;;;-8.55;100.00;98977.50;5001489;28;20701;-67
2024/02/10 02:05:54;;;;;;;7.03;3.83;;;;;;;-8.42;100.00;98976.13;5002108;28;20788;-67
2024/02/10 02:08:20;;;;;;;5.90;3.53;;;;;;;-8.47;100.00;98976.31;5002706;28;20287;-66
2024/02/10 02:10:47;;;;;;;6.40;3.73;;;;;;;-8.43;100.00;98971.91;5003451;28;20287;-67
2024/02/10 02:13:22;;;;;;;6.37;3.83;;;;;;;-8.45;100.00;98971.97;5002661;28;20357;-67
2024/02/10 02:15:57;;;;;;;7.03;3.57;;;;;;;-8.40;100.00;98974.34;5004407;28;20295;-66
2024/02/10 02:18:23;;;;;;;6.60;3.53;;;;;;;-8.41;100.00;98983.00;5003728;28;20313;-66
2024/02/10 02:20:49;;;;;;;6.60;3.53;;;;;;;-8.36;100.00;98989.63;5018253;28;20299;-66
2024/02/10 02:23:18;;;;;;;8.70;4.13;;;;;;;-8.33;100.00;98993.84;5002557;28;20052;-67
2024/02/10 02:25:48;;;;;;;8.33;4.40;;;;;;;-8.32;100.00;98987.78;5003455;28;20804;-67
2024/02/10 02:28:16;;;;;;;11.07;5.93;;;;;;;-8.32;100.00;98993.78;5004014;28;21055;-66
2024/02/10 02:30:44;;;;;;;12.93;5.77;;;;;;;-8.40;100.00;98997.53;5035616;28;20051;-67
2024/02/10 02:33:13;;;;;;;11.70;5.10;;;;;;;-8.49;100.00;98996.16;4999352;28;20331;-67
2024/02/10 02:35:46;;;;;;;14.80;5.80;;;;;;;-8.49;100.00;99003.03;4985422;28;20283;-67
2024/02/10 02:38:13;;;;;;;9.83;5.27;;;;;;;-8.67;100.00;98999.38;5001455;28;20872;-67
2024/02/10 02:40:41;;;;;;;15.40;6.03;;;;;;;-8.76;100.00;99007.44;4985159;28;20337;-67
2024/02/10 02:43:08;;;;;;;8.87;5.33;;;;;;;-8.97;100.00;99000.47;4984901;28;20430;-66
2024/02/10 02:45:35;;;;;;;11.97;5.10;;;;;;;-9.02;100.00;99012.66;5017478;28;20302;-67
2024/02/10 02:48:03;;;;;;;11.93;4.77;;;;;;;-9.12;100.00;99019.84;5001748;28;20279;-67
2024/02/10 02:50:34;;;;;;;7.75;4.47;;;;;;;-9.20;100.00;99028.72;5019032;28;20044;-67
2024/02/10 02:53:03;;;;;;;8.47;4.53;;;;;;;-9.25;100.00;99026.31;5001561;28;20485;-67
2024/02/10 02:55:30;;;;;;;13.23;5.20;;;;;;;-9.32;100.00;99024.84;5000653;28;20291;-67
2024/02/10 02:58:09;;;;;;;9.23;4.20;;;;;;;-9.24;100.00;99045.16;5000971;28;20800;-66
2024/02/10 03:00:38;;;;;;;8.13;4.00;;;;;;;-9.34;100.00;99041.19;5017960;28;20049;-67
2024/02/10 03:03:05;;;;;;;8.57;4.37;;;;;;;-9.32;100.00;99047.97;5000766;28;20283;-67
2024/02/10 03:05:32;;;;;;;9.03;4.43;;;;;;;-9.36;100.00;99055.81;4993654;28;20315;-67
2024/02/10 03:08:00;;;;;;;7.33;3.83;;;;;;;-9.28;100.00;99062.41;4978255;28;20280;-67
2024/02/10 03:10:26;;;;;;;7.23;3.87;;;;;;;-9.42;100.00;99062.00;4977971;28;20308;-67
2024/02/10 03:12:54;;;;;;;7.33;4.03;;;;;;;-9.34;100.00;99064.31;4978004;28;20288;-68
2024/02/10 03:15:30;;;;;;;6.28;3.65;;;;;;;-9.33;100.00;99066.03;4978118;28;20473;-68
2024/02/10 03:17:56;;;;;;;7.80;4.03;;;;;;;-9.41;100.00;99065.44;4978171;28;20144;-68
2024/02/10 03:20:28;;;;;;;8.10;4.60;;;;;;;-9.41;100.00;99073.97;4993457;28;20435;-68
2024/02/10 03:23:01;;;;;;;8.50;4.33;;;;;;;-9.46;100.00;99069.88;4945858;28;20053;-68
2024/02/10 03:25:28;;;;;;;7.87;4.20;;;;;;;-9.48;100.00;99080.19;4947270;28;20296;-68
2024/02/10 03:28:03;;;;;;;9.30;4.27;;;;;;;-9.48;100.00;99075.06;4945192;28;20320;-68
2024/02/10 03:30:38;;;;;;;7.63;4.30;;;;;;;-9.64;100.00;99081.56;4978071;28;20285;-68
2024/02/10 03:33:04;;;;;;;6.13;3.97;;;;;;;-9.70;100.00;99088.63;4994693;28;20419;-69
2024/02/10 03:35:32;;;;;;;8.90;4.53;;;;;;;-9.77;100.00;99093.13;4939058;28;20287;-69
2024/02/10 03:37:59;;;;;;;8.60;4.20;;;;;;;-9.83;100.00;99089.88;4942777;28;20324;-69
2024/02/10 03:40:29;;;;;;;8.80;4.63;;;;;;;-9.78;100.00;99106.00;4973612;28;20348;-69
2024/02/10 03:42:55;;;;;;;10.40;4.70;;;;;;;-9.89;100.00;99097.78;4926560;28;20056;-69
2024/02/10 03:45:21;;;;;;;11.00;4.73;;;;;;;-9.92;100.00;99098.72;4926590;28;20372;-69
2024/02/10 03:47:50;;;;;;;11.33;5.13;;;;;;;-9.93;100.00;99101.34;4935655;28;20395;-68
2024/02/10 03:50:16;;;;;;;9.57;4.67;;;;;;;-9.94;100.00;99103.06;4977640;28;20050;-69
2024/02/10 03:52:42;;;;;;;8.17;4.80;;;;;;;-9.96;100.00;99109.94;4977207;28;20436;-69
2024/02/10 03:55:08;;;;;;;12.67;5.33;;;;;;;-9.98;100.00;99113.47;4961431;28;20304;-69
2024/02/10 03:57:37;;;;;;;12.47;5.37;;;;;;;-9.95;100.00;99119.38;4977857;28;20149;-69
2024/02/10 04:00:10;;;;;;;10.10;4.87;;;;;;;-10.03;100.00;99125.59;4945533;28;20285;-69
2024/02/10 04:02:36;;;;;;;9.50;5.20;;;;;;;-10.12;100.00;99131.88;4973959;28;20313;-67
2024/02/10 04:05:04;;;;;;;10.73;5.00;;;;;;;-10.06;100.00;99129.09;4976869;28;20424;-68
2024/02/10 04:07:35;;;;;;;9.40;4.93;;;;;;;-10.07;100.00;99129.19;5019015;28;20376;-68
2024/02/10 04:10:04;;;;;;;10.17;4.67;;;;;;;-10.14;100.00;99131.06;5020555;28;20291;-68
2024/02/10 04:12:32;;;;;;;10.60;4.97;;;;;;;-10.20;100.00;99132.97;5020363;28;20295;-69
2024/02/10 04:15:11;;;;;;;12.37;5.57;;;;;;;-10.10;100.00;99137.78;4984726;28;20331;-69
2024/02/10 04:17:49;;;;;;;10.93;4.77;;;;;;;-10.13;100.00;99142.19;4968431;28;20431;-69
2024/02/10 04:20:19;;;;;;;10.83;4.77;;;;;;;-10.23;100.00;99140.75;4968627;28;20296;-68
2024/02/10 04:22:51;;;;;;;8.83;4.93;;;;;;;-10.19;100.00;99145.75;4984959;28;20275;-68
2024/02/10 04:25:17;;;;;;;10.93;5.40;;;;;;;-10.22;100.00;99153.53;4968049;28;20828;-69
2024/02/10 04:27:44;;;;;;;12.50;5.00;;;;;;;-10.22;100.00;99147.59;4941858;28;20282;-69
2024/02/10 04:30:13;;;;;;;11.97;5.40;;;;;;;-10.15;100.00;99159.34;4943388;28;20305;-68
2024/02/10 04:33:06;;;;;;;10.40;5.33;;;;;;;-10.10;100.00;99165.22;4932140;28;20294;-68
2024/02/10 04:35:32;;;;;;;9.83;5.07;;;;;;;-10.31;100.00;99164.06;4959026;28;20282;-68
2024/02/10 04:38:02;;;;;;;9.30;4.43;;;;;;;-10.21;100.00;99154.41;4912569;28;20289;-69
2024/02/10 04:40:31;;;;;;;9.40;4.87;;;;;;;-10.37;100.00;99160.81;4927651;28;20298;-66
2024/02/10 04:42:57;;;;;;;10.03;5.10;;;;;;;-10.38;100.00;99166.84;4942619;28;20417;-66
2024/02/10 04:45:27;;;;;;;12.83;5.87;;;;;;;-10.33;100.00;99165.00;4953200;28;20815;-65
2024/02/10 04:48:03;;;;;;;11.63;6.13;;;;;;;-10.37;100.00;99168.50;4946689;28;20141;-64
2024/02/10 04:50:30;;;;;;;12.45;6.05;;;;;;;-10.52;100.00;99167.22;4945461;28;20363;-65
2024/02/10 04:52:58;;;;;;;12.60;6.17;;;;;;;-10.64;100.00;99183.75;4962856;28;20089;-65
2024/02/10 04:55:25;;;;;;;12.33;6.13;;;;;;;-10.69;100.00;99175.38;4977676;28;20278;-65
2024/02/10 04:57:52;;;;;;;15.10;6.03;;;;;;;-10.62;100.00;99186.28;4951652;28;20311;-65
2024/02/10 05:00:19;;;;;;;12.10;5.70;;;;;;;-10.68;100.00;99177.03;4999630;28;20785;-65
2024/02/10 05:02:47;;;;;;;11.30;6.37;;;;;;;-10.65;100.00;99182.09;5000224;28;20280;-65
2024/02/10 05:05:17;;;;;;;11.43;6.10;;;;;;;-10.70;100.00;99185.66;4999886;28;20292;-65
2024/02/10 05:07:45;;;;;;;13.67;6.43;;;;;;;-10.62;100.00;99189.69;5032656;28;20295;-65
2024/02/10 05:10:16;;;;;;;15.03;6.37;;;;;;;-10.62;100.00;99182.00;5032862;28;20292;-65
2024/02/10 05:12:48;;;;;;;14.53;7.33;;;;;;;-10.59;100.00;99196.47;4984563;28;20390;-65
2024/02/10 05:15:22;;;;;;;14.63;6.45;;;;;;;-10.43;100.00;99202.03;5000510;28;20473;-65
2024/02/10 05:17:51;;;;;;;15.43;6.67;;;;;;;-10.48;100.00;99206.47;4983151;28;20045;-67
2024/02/10 05:20:26;;;;;;;13.73;6.50;;;;;;;-10.37;100.00;99209.56;5032110;28;20351;-65
2024/02/10 05:22:58;;;;;;;12.13;6.43;;;;;;;-10.36;100.00;99211.28;4976103;28;20429;-66
2024/02/10 05:25:35;;;;;;;13.30;6.33;;;;;;;-10.21;100.00;99208.28;4945073;28;20474;-66
2024/02/10 05:28:08;;;;;;;9.63;5.23;;;;;;;-10.21;100.00;99216.00;4943429;28;20322;-65
2024/02/10 05:30:37;;;;;;;14.53;6.53;;;;;;;-10.07;100.00;99227.56;4961213;28;20293;-65
2024/02/10 05:33:05;;;;;;;13.57;6.80;;;;;;;-10.07;100.00;99213.91;4944235;28;20293;-65
2024/02/10 05:35:31;;;;;;;20.47;7.80;;;;;;;-10.09;100.00;99218.22;4943920;28;20313;-65
2024/02/10 05:37:59;;;;;;;16.60;7.97;;;;;;;-10.00;100.00;99228.22;4928683;28;20286;-66
2024/02/10 05:40:34;;;;;;;18.90;7.77;;;;;;;-9.86;100.00;99228.66;4992426;28;20752;-66
2024/02/10 05:43:08;;;;;;;14.67;6.90;;;;;;;-9.91;100.00;99238.22;4977075;28;20414;-66
2024/02/10 05:45:38;;;;;;;15.77;7.10;;;;;;;-9.78;100.00;99231.88;4997136;28;20292;-66
2024/02/10 05:48:05;;;;;;;15.43;7.03;;;;;;;-9.81;100.00;99232.78;4967797;28;20299;-66
2024/02/10 05:50:32;;;;;;;17.00;7.10;;;;;;;-9.82;100.00;99233.69;4983047;28;20383;-65
2024/02/10 05:53:00;;;;;;;15.53;7.30;;;;;;;-9.73;100.00;99233.41;4984912;28;20299;-66
2024/02/10 05:55:28;;;;;;;17.70;7.67;;;;;;;-9.61;100.00;99237.38;4982099;28;20368;-73
2024/02/10 05:57:55;;;;;;;16.40;7.40;;;;;;;-9.58;100.00;99245.81;4965196;28;20289;-71
2024/02/10 06:00:25;;;;;;;16.60;7.20;;;;;;;-9.47;100.00;99245.53;4977178;28;20293;-69
2024/02/10 06:02:53;;;;;;;16.65;8.15;;;;;;;-9.48;100.00;99241.25;4959840;28;20392;-67
2024/02/10 06:05:22;;;;;;;14.23;7.13;;;;;;;-9.38;100.00;99251.22;4976271;28;20220;-71
2024/02/10 06:07:54;;;;;;;16.13;7.47;;;;;;;-9.22;100.00;99254.19;4998368;28;20077;-69
2024/02/10 06:10:20;;;;;;;20.35;7.32;;;;;;;-9.18;100.00;99245.50;4982477;28;20284;-71
2024/02/10 06:13:08;;;;;;;16.00;6.87;;;;;;;-8.82;100.00;99247.75;4982464;28;20053;-70
2024/02/10 06:15:34;;;;;;;16.23;7.10;;;;;;;-8.81;100.00;99266.63;4959767;28;20368;-67
2024/02/10 06:18:03;;;;;;;13.00;6.50;;;;;;;-8.64;100.00;99266.09;4930683;28;20399;-69
2024/02/10 06:20:32;;;;;;;13.70;6.30;;;;;;;-8.51;100.00;99273.34;4951551;28;20084;-69
2024/02/10 06:23:03;;;;;;;16.30;6.83;;;;;;;-8.29;100.00;99282.06;4934620;28;20290;-71
2024/02/10 06:25:30;;;;;;;15.87;7.00;;;;;;;-8.37;100.00;99283.19;4949226;28;20305;-70
2024/02/10 06:27:59;;;;;;;14.47;7.10;;;;;;;-8.31;100.00;99278.69;4916692;28;20290;-70
2024/02/10 06:30:33;;;;;;;14.60;6.33;;;;;;;-8.11;100.00;99289.13;4953561;28;20301;-69
2024/02/10 06:33:05;;;;;;;13.10;6.73;;;;;;;-8.05;100.00;99286.34;4987533;28;20288;-72
2024/02/10 06:35:31;;;;;;;14.73;6.47;;;;;;;-7.93;100.00;99293.66;4956566;28;20284;-71
2024/02/10 06:37:57;;;;;;;14.40;6.40;;;;;;;-7.79;100.00;99296.59;4980171;28;20350;-70
2024/02/10 06:40:27;;;;;;;16.93;7.80;;;;;;;-7.68;100.00;99304.81;4963875;28;20053;-70
2024/02/10 06:43:02;;;;;;;21.25;7.50;;;;;;;-7.50;100.00;99317.03;4979364;28;20758;-69
2024/02/10 06:45:36;;;;;;;19.37;8.63;;;;;;;-7.54;100.00;99318.03;4966259;28;20038;-70
2024/02/10 06:48:05;;;;;;;23.03;8.40;;;;;;;-7.43;100.00;99323.66;5015439;28;20319;-71
2024/02/10 06:50:37;;;;;;;16.13;6.80;;;;;;;-7.31;100.00;99325.78;5015779;28;20307;-69
2024/02/10 06:53:06;;;;;;;18.63;9.07;;;;;;;-7.37;100.00;99336.34;5015983;28;20300;-70
2024/02/10 06:55:34;;;;;;;19.80;8.80;;;;;;;-7.29;100.00;99347.19;4982858;28;20284;-72
2024/02/10 06:58:02;;;;;;;25.37;9.87;;;;;;;-7.33;100.00;99353.38;5015467;28;20538;-70
2024/02/10 07:00:37;;;;;;;23.70;10.00;;;;;;;-7.16;99.84;99351.03;4999761;28;20284;-69
2024/02/10 07:03:06;;;;;;;23.47;9.73;;;;;;;-6.97;99.12;99361.50;4999901;28;20045;-69
2024/02/10 07:05:33;;;;;;;22.63;10.33;;;;;;;-6.83;96.93;99361.00;4998109;28;20050;-69
2024/02/10 07:08:00;;;;;;;21.37;9.53;;;;;;;-6.63;95.41;99367.09;5015105;28;20045;-69
2024/02/10 07:10:29;;;;;;;22.40;10.23;;;;;;;-6.30;94.19;99372.66;4982401;28;20049;-70
2024/02/10 07:13:04;;;;;;;24.40;9.50;;;;;;;-5.99;91.47;99373.97;4999398;28;20140;-68
2024/02/10 07:15:30;;;;;;;23.37;10.03;;;;;;;-5.72;87.49;99380.53;5015523;28;20045;-69
2024/02/10 07:17:57;;;;;;;30.33;11.60;;;;;;;-5.03;84.40;99384.47;4999543;28;20045;-67
2024/02/10 07:20:30;;;;;;;22.83;11.43;;;;;;;-3.49;80.12;99385.69;5052073;28;20052;-68
2024/02/10 07:22:59;;;;;;;26.40;11.47;;;;;;;-1.67;69.81;99390.44;5012749;28;20101;-70
2024/02/10 07:25:33;;;;;;;23.90;10.97;;;;;;;-0.75;60.20;99381.34;5029435;28;20074;-68
2024/02/10 07:28:02;;;;;;;;;;;;;;;0.66;55.62;99388.75;5010394;28;20058;-70
2024/02/10 07:30:32;;;;;;;21.37;9.00;;;;;;;1.89;50.21;99393.13;4976421;28;20271;-71
2024/02/10 07:33:09;;;;;;;21.02;9.50;;;;;;;2.92;44.28;99387.09;4958971;28;20061;-70
2024/02/10 07:35:35;;;;;;;31.03;11.57;;;;;;;3.74;40.29;99381.53;4940630;28;20062;-71
2024/02/10 07:38:14;;;;;;;24.87;11.50;;;;;;;4.62;38.15;99380.41;4956456;28;20049;-72
2024/02/10 07:40:48;;;;;;;21.90;11.20;;;;;;;5.79;35.48;99390.47;4973771;28;20528;-70
2024/02/10 07:43:19;;;;;;;24.02;11.20;;;;;;;7.19;33.73;99386.41;4994494;28;20397;-70
2024/02/10 07:45:46;;;;;;;20.27;9.00;;;;;;;7.94;31.79;99395.03;4979071;28;20054;-70
2024/02/10 07:48:13;;;;;;;16.88;9.57;;;;;;;7.50;29.47;99390.50;4963996;28;20049;-71
2024/02/10 07:50:41;;;;;;;16.02;8.93;;;;;;;7.17;28.27;99398.91;4950890;29;20055;-71
2024/02/10 07:53:12;;;;;;;26.35;11.10;;;;;;;5.53;27.90;99411.19;4889203;29;20052;-70
2024/02/10 07:55:41;;;;;;;18.27;9.60;;;;;;;5.79;28.86;99401.88;4889350;29;20055;-70
2024/02/10 07:58:15;;;;;;;19.17;9.23;;;;;;;5.14;28.22;99409.31;4898047;28;20050;-70
2024/02/10 08:00:46;;;;;;;19.50;9.55;;;;;;;3.69;28.98;99414.38;4961754;28;20038;-70
2024/02/10 08:03:13;;;;;;;18.35;10.00;;;;;;;2.77;30.33;99417.09;4994499;28;20548;-70
2024/02/10 08:05:41;;;;;;;18.52;9.90;;;;;;;2.88;31.30;99411.91;4962082;28;20181;-71
2024/02/10 08:08:09;;;;;;;17.33;9.15;;;;;;;4.59;31.44;99405.19;4962252;28;20060;-71
2024/02/10 08:10:36;;;;;;;17.42;8.70;;;;;;;6.25;30.15;99420.63;4946429;28;20045;-70
2024/02/10 08:13:08;;;;;;;13.57;8.63;;;;;;;7.91;28.68;99413.81;4977925;28;20059;-70
2024/02/10 08:15:37;;;;;;;12.93;8.52;;;;;;;8.87;26.08;99427.28;4965891;28;20428;-70
2024/02/10 08:18:08;;;;;;;14.55;7.68;;;;;;;9.54;25.88;99422.16;4981435;28;20041;-71
2024/02/10 08:20:40;;;;;;;11.70;7.80;;;;;;;11.00;25.12;99418.97;4996744;28;20061;-71
2024/02/10 08:23:12;;;;;;;13.80;7.77;;;;;;;11.66;23.17;99422.25;4997633;28;20060;-71
2024/02/10 08:25:42;;;;;;;14.47;7.53;;;;;;;12.47;23.06;99414.78;4965425;28;20231;-71
2024/02/10 08:28:11;;;;;;;12.15;6.93;;;;;;;13.24;22.38;99407.41;5012643;28;20339;-71
2024/02/10 08:30:36;;;;;;;10.63;7.47;;;;;;;14.02;21.37;99414.94;5007354;28;20109;-71
2024/02/10 08:33:03;;;;;;;10.85;6.70;;;;;;;14.78;20.49;99424.09;5023595;28;20048;-71
2024/02/10 08:35:29;;;;;;;11.07;6.80;;;;;;;15.00;20.11;99425.78;5039829;28;20049;-71
2024/02/10 08:37:58;;;;;;;9.23;6.80;;;;;;;15.43;19.92;99415.03;5040007;28;20048;-71
2024/02/10 08:40:26;;;;;;;10.75;6.63;;;;;;;15.69;19.62;99416.06;5023501;28;20048;-71
2024/02/10 08:42:54;;;;;;;11.60;6.70;;;;;;;16.08;19.15;99413.59;4991003;28;20064;-71
2024/02/10 08:45:21;;;;;;;10.18;6.10;;;;;;;16.34;18.84;99416.44;5039911;28;20033;-71
2024/02/10 08:47:47;;;;;;;8.95;6.68;;;;;;;16.82;18.26;99431.47;5039625;28;20379;-71
2024/02/10 08:50:14;;;;;;;10.10;7.10;;;;;;;17.16;17.28;99429.69;5022970;28;20043;-71
2024/02/10 08:52:47;;;;;;;9.90;7.22;;;;;;;17.30;17.37;99429.47;5038106;28;20122;-70
2024/02/10 08:55:15;;;;;;;12.38;8.57;;;;;;;17.01;16.67;99439.75;5023591;28;20135;-71
2024/02/10 08:57:41;;;;;;;16.40;8.88;;;;;;;16.64;17.42;99436.56;5038909;28;20092;-71
2024/02/10 09:00:11;;;;;;;14.50;8.95;;;;;;;16.76;17.34;99434.94;5023032;28;20058;-70
2024/02/10 09:02:37;;;;;;;15.05;9.38;;;;;;;17.33;16.66;99444.34;4954304;29;20186;-71
2024/02/10 09:05:06;;;;;;;13.18;8.00;;;;;;;15.87;16.57;99437.81;4919629;29;20143;-70
2024/02/10 09:07:57;;;;;;;13.25;7.80;;;;;;;16.59;17.09;99438.22;4903526;29;20048;-71
2024/02/10 09:10:22;;;;;;;11.98;7.75;;;;;;;17.02;16.80;99433.38;4903543;29;20051;-71
2024/02/10 09:12:51;;;;;;;13.68;7.72;;;;;;;17.25;16.16;99425.75;4903326;29;20052;-70
2024/02/10 09:15:18;;;;;;;17.65;10.48;;;;;;;17.75;15.90;99438.56;4903527;29;20154;-71
2024/02/10 09:17:43;;;;;;;14.77;9.07;;;;;;;18.04;15.87;99438.94;4934961;29;20143;-70
2024/02/10 09:20:13;;;;;;;10.63;6.85;;;;;;;17.00;15.00;99444.31;4919229;29;20109;-71
2024/02/10 09:22:40;;;;;;;10.05;6.40;;;;;;;17.31;16.14;99439.19;4934819;29;20056;-71
2024/02/10 09:25:08;;;;;;;10.27;6.95;;;;;;;17.94;15.40;99448.47;4919053;29;20130;-70
2024/02/10 09:27:33;;;;;;;7.47;6.00;;;;;;;18.64;15.28;99445.78;4903366;29;20399;-70
2024/02/10 09:30:00;;;;;;;8.77;5.90;;;;;;;19.08;14.79;99442.22;4918729;29;20473;-70
2024/02/10 09:32:26;;;;;;;8.48;5.70;;;;;;;19.36;14.57;99427.34;4920882;28;20426;-70
2024/02/10 09:34:53;;;;;;;7.82;5.80;;;;;;;19.97;14.41;99432.81;4985913;28;20056;-70
2024/02/10 09:37:20;;;;;;;7.10;5.85;;;;;;;19.86;13.68;99444.31;4998586;28;20502;-70
2024/02/10 09:39:46;;;;;;;6.65;5.28;;;;;;;20.16;14.23;99441.78;5015111;28;20069;-70
2024/02/10 09:42:20;;;;;;;5.72;4.97;;;;;;;20.79;13.70;99443.88;4999090;28;20487;-71
2024/02/10 09:44:49;;;;;;;8.10;5.78;;;;;;;20.76;13.26;99440.81;4998940;28;20072;-71
2024/02/10 09:47:17;;;;;;;8.05;5.95;;;;;;;20.73;13.04;99433.16;4960203;28;20153;-70
2024/02/10 09:49:43;;;;;;;7.18;5.53;;;;;;;20.46;13.30;99429.16;4928246;28;20389;-70
2024/02/10 09:52:10;;;;;;;5.97;5.18;;;;;;;20.61;13.06;99440.38;4944017;28;20141;-71
2024/02/10 09:54:39;;;;;;;9.27;6.18;;;;;;;21.00;12.96;99439.91;4924750;28;20116;-70
2024/02/10 09:57:08;;;;;;;7.95;5.35;;;;;;;21.08;12.99;99436.88;4909091;28;20046;-70
2024/02/10 09:59:35;;;;;;;;;;;;;;;21.49;12.51;99439.53;4910189;28;20059;-71
2024/02/10 10:02:04;;;;;;;7.28;5.55;;;;;;;21.51;12.49;99432.03;4940049;28;19933;-71
2024/02/10 10:04:30;;;;;;;7.70;5.90;;;;;;;21.45;12.57;99433.78;4905369;29;20066;-70
2024/02/10 10:06:57;;;;;;;7.90;6.35;;;;;;;21.21;12.44;99431.25;4921116;29;20149;-70
2024/02/10 10:09:23;;;;;;;10.57;6.13;;;;;;;21.16;12.87;99431.13;4921267;29;20047;-70
2024/02/10 10:11:51;;;;;;;7.35;6.10;;;;;;;21.02;12.52;99416.19;4921111;29;20062;-70
2024/02/10 10:14:17;;;;;;;8.02;5.88;;;;;;;21.41;12.75;99432.59;4927049;28;20409;-70
2024/02/10 10:17:03;;;;;;;6.88;5.55;;;;;;;21.76;12.10;99437.25;4956441;28;20038;-70
2024/02/10 10:19:31;;;;;;;7.28;5.78;;;;;;;21.56;12.18;99445.66;4958787;28;20141;-70
2024/02/10 10:21:57;;;;;;;8.27;6.15;;;;;;;21.24;12.39;99449.69;4959095;28;20910;-71
2024/02/10 10:24:25;;;;;;;6.85;5.30;;;;;;;21.36;12.27;99451.38;4943471;28;20139;-71
2024/02/10 10:26:56;;;;;;;7.38;6.07;;;;;;;21.12;12.30;99457.78;4943274;28;20065;-70
2024/02/10 10:29:22;;;;;;;8.43;5.73;;;;;;;21.20;12.26;99453.94;4943375;28;20057;-71
2024/02/10 10:31:49;;;;;;;6.82;5.43;;;;;;;21.51;12.43;99459.88;4951268;28;20114;-70
2024/02/10 10:34:18;;;;;;;7.32;5.78;;;;;;;21.49;12.15;99459.28;4946554;28;20076;-71
2024/02/10 10:36:48;;;;;;;10.15;5.88;;;;;;;21.45;11.98;99458.09;4998985;28;20102;-71
2024/02/10 10:39:14;;;;;;;7.18;5.97;;;;;;;21.31;12.23;99453.94;4978901;28;20444;-71
2024/02/10 10:41:48;;;;;;;7.97;6.32;;;;;;;21.46;11.98;99454.31;4962381;28;20077;-71
2024/02/10 10:44:20;;;;;;;9.05;6.60;;;;;;;21.48;12.26;99460.31;4978797;28;20058;-71
2024/02/10 10:46:50;;;;;;;9.60;6.63;;;;;;;21.44;11.85;99458.31;4995210;28;20093;-71
2024/02/10 10:49:17;;;;;;;8.23;6.28;;;;;;;21.20;12.06;99464.75;4962741;28;20140;-72
2024/02/10 10:52:02;;;;;;;8.30;5.93;;;;;;;21.18;11.88;99469.53;5011314;28;20037;-71
2024/02/10 10:54:33;;;;;;;7.75;6.10;;;;;;;21.16;12.08;99479.75;4962322;28;20054;-71
2024/02/10 10:57:02;;;;;;;7.82;6.07;;;;;;;20.81;12.41;99479.56;4946233;28;20046;-71
2024/02/10 10:59:35;;;;;;;8.07;6.10;;;;;;;20.78;12.38;99480.03;4994467;28;20073;-71
2024/02/10 11:02:05;;;;;;;7.45;5.80;;;;;;;20.74;12.60;99484.22;4947060;28;20049;-70
2024/02/10 11:04:33;;;;;;;7.20;5.47;;;;;;;20.76;12.28;99482.13;4962234;28;20088;-71
2024/02/10 11:07:08;;;;;;;7.28;5.43;;;;;;;20.45;12.03;99486.88;4994780;28;20084;-71
2024/02/10 11:09:48;;;;;;;6.97;5.60;;;;;;;20.21;12.74;99483.19;4985375;28;20049;-71
2024/02/10 11:12:17;;;;;;;7.88;5.90;;;;;;;19.91;12.10;99471.44;4999269;28;20124;-71
2024/02/10 11:14:56;;;;;;;9.57;5.35;;;;;;;20.11;12.35;99485.56;5015633;28;20110;-71
2024/02/10 11:17:22;;;;;;;7.10;5.25;;;;;;;19.68;12.49;99488.22;5014019;28;20091;-71
2024/02/10 11:19:59;;;;;;;6.88;5.20;;;;;;;19.97;12.71;99489.41;4998113;28;20049;-71
2024/02/10 11:22:30;;;;;;;6.18;5.00;;;;;;;19.94;12.23;99495.25;5014150;28;20065;-71
2024/02/10 11:24:58;;;;;;;7.43;5.15;;;;;;;19.72;12.57;99492.13;4998157;28;20056;-71
2024/02/10 11:27:24;;;;;;;6.65;5.00;;;;;;;19.39;12.52;99496.94;5014430;28;20076;-71
2024/02/10 11:29:58;;;;;;;6.88;4.88;;;;;;;19.09;12.77;99500.41;4998077;28;20041;-71
2024/02/10 11:32:26;;;;;;;8.38;4.93;;;;;;;19.19;12.59;99501.59;4997919;28;20041;-71
2024/02/10 11:34:52;;;;;;;9.05;5.15;;;;;;;19.24;13.15;99499.06;4997991;28;20064;-71